createdAt,value
2023-10-14T00:00:37.730Z,42.16
2023-10-14T00:03:30.397Z,42.34
2023-10-14T00:06:18.556Z,42.27
2023-10-14T00:09:13.652Z,42.66
2023-10-14T00:12:03.111Z,42.32
2023-10-14T00:14:54.749Z,42.65
2023-10-14T00:17:43.453Z,42.50
2023-10-14T00:20:35.881Z,42.50
2023-10-14T00:23:25.352Z,42.40
2023-10-14T00:26:18.227Z,42.45
2023-10-14T00:29:21.244Z,42.61
2023-10-14T00:32:07.678Z,42.45
2023-10-14T00:34:53.853Z,43.04
2023-10-14T00:37:39.847Z,42.66
2023-10-14T00:40:28.821Z,42.88
2023-10-14T00:43:15.416Z,42.88
2023-10-14T00:46:01.598Z,42.92
2023-10-14T00:48:48.804Z,43.00
2023-10-14T00:51:35.142Z,43.05
2023-10-14T00:54:38.886Z,43.10
2023-10-14T00:57:25.083Z,42.66
2023-10-14T01:00:12.641Z,43.06
2023-10-14T01:02:59.002Z,43.10
2023-10-14T01:05:46.982Z,42.75
2023-10-14T01:08:38.537Z,43.11
2023-10-14T01:11:26.221Z,43.43
2023-10-14T01:14:15.916Z,43.05
2023-10-14T01:17:03.183Z,43.37
2023-10-14T01:19:51.496Z,43.59
2023-10-14T01:22:40.121Z,43.42
2023-10-14T01:25:32.997Z,43.38
2023-10-14T01:28:30.964Z,43.28
2023-10-14T01:32:07.235Z,43.66
2023-10-14T01:35:01.827Z,43.21
2023-10-14T01:37:47.676Z,43.35
2023-10-14T01:40:33.933Z,43.33
2023-10-14T01:43:25.461Z,43.33
2023-10-14T01:46:11.981Z,43.63
2023-10-14T01:49:11.279Z,43.53
2023-10-14T01:52:00.968Z,43.49
2023-10-14T01:54:52.082Z,43.83
2023-10-14T01:57:38.197Z,43.79
2023-10-14T02:00:26.976Z,43.42
2023-10-14T02:03:13.804Z,43.70
2023-10-14T02:06:00.034Z,43.51
2023-10-14T02:08:54.024Z,43.60
2023-10-14T02:11:40.518Z,43.71
2023-10-14T02:14:28.695Z,43.56
2023-10-14T02:17:14.812Z,43.46
2023-10-14T02:20:21.278Z,43.93
2023-10-14T02:23:07.374Z,43.77
2023-10-14T02:25:57.410Z,43.58
2023-10-14T02:28:47.041Z,43.70
2023-10-14T02:31:37.118Z,43.95
2023-10-14T02:34:23.005Z,44.01
2023-10-14T02:37:11.906Z,44.02
2023-10-14T02:40:00.026Z,43.88
2023-10-14T02:42:47.813Z,43.76
2023-10-14T02:45:42.067Z,43.77
2023-10-14T02:48:47.797Z,43.72
2023-10-14T02:51:36.382Z,43.73
2023-10-14T02:54:28.826Z,43.90
2023-10-14T02:57:16.008Z,44.02
2023-10-14T03:00:03.779Z,44.00
2023-10-14T03:02:50.274Z,43.88
2023-10-14T03:05:36.733Z,43.77
2023-10-14T03:08:23.414Z,43.89
2023-10-14T03:11:18.503Z,43.94
2023-10-14T03:14:04.477Z,43.91
2023-10-14T03:16:53.340Z,44.17
2023-10-14T03:19:38.954Z,43.87
2023-10-14T03:22:26.936Z,44.00
2023-10-14T03:25:16.536Z,44.15
2023-10-14T03:28:21.416Z,44.41
2023-10-14T03:31:15.710Z,44.61
2023-10-14T03:34:09.583Z,44.36
2023-10-14T03:37:01.536Z,44.57
2023-10-14T03:39:48.054Z,44.56
2023-10-14T03:42:34.176Z,44.25
2023-10-14T03:45:22.921Z,44.46
2023-10-14T03:48:09.846Z,44.67
2023-10-14T03:51:04.111Z,44.38
2023-10-14T03:53:53.389Z,44.57
2023-10-14T03:56:45.790Z,44.35
2023-10-14T03:59:34.897Z,44.57
2023-10-14T04:02:26.124Z,44.43
2023-10-14T04:05:14.019Z,44.63
2023-10-14T04:08:01.387Z,44.83
2023-10-14T04:10:55.666Z,44.80
2023-10-14T04:14:05.621Z,44.76
2023-10-14T04:17:10.246Z,44.46
2023-10-14T04:19:59.263Z,44.75
2023-10-14T04:22:46.727Z,44.56
2023-10-14T04:25:57.994Z,44.71
2023-10-14T04:28:54.794Z,44.92
2023-10-14T04:31:40.990Z,44.78
2023-10-14T04:34:27.150Z,44.81
2023-10-14T04:37:21.551Z,44.79
2023-10-14T04:40:17.488Z,44.71
2023-10-14T04:43:19.803Z,45.47
2023-10-14T04:46:14.419Z,45.17
2023-10-14T04:49:08.863Z,45.32
2023-10-14T04:52:00.401Z,45.32
2023-10-14T04:55:18.386Z,45.23
2023-10-14T04:58:08.324Z,45.00
2023-10-14T05:00:58.465Z,45.08
2023-10-14T05:03:45.865Z,45.17
2023-10-14T05:06:32.070Z,45.23
2023-10-14T05:09:31.898Z,45.33
2023-10-14T05:12:25.618Z,45.13
2023-10-14T05:15:28.860Z,44.99
2023-10-14T05:18:18.314Z,44.89
2023-10-14T05:21:13.666Z,45.02
2023-10-14T05:24:00.416Z,45.08
2023-10-14T05:26:49.137Z,45.08
2023-10-14T05:29:35.059Z,45.22
2023-10-14T05:32:32.559Z,45.01
2023-10-14T05:35:19.008Z,45.20
2023-10-14T05:38:11.306Z,45.09
2023-10-14T05:40:59.240Z,45.50
2023-10-14T05:43:45.120Z,45.38
2023-10-14T05:46:31.525Z,45.16
2023-10-14T05:49:17.562Z,45.17
2023-10-14T05:52:03.738Z,45.61
2023-10-14T05:54:50.644Z,45.52
2023-10-14T05:57:41.061Z,45.47
2023-10-14T06:00:28.934Z,45.31
2023-10-14T06:03:15.236Z,45.80
2023-10-14T06:06:04.286Z,45.49
2023-10-14T06:08:54.368Z,45.49
2023-10-14T06:11:40.436Z,45.69
2023-10-14T06:14:26.580Z,45.64
2023-10-14T06:17:13.869Z,45.80
2023-10-14T06:19:59.753Z,45.92
2023-10-14T06:22:46.126Z,45.99
2023-10-14T06:25:31.897Z,45.87
2023-10-14T06:28:17.853Z,45.85
2023-10-14T06:31:05.441Z,45.73
2023-10-14T06:33:56.100Z,45.58
2023-10-14T06:36:49.275Z,45.67
2023-10-14T06:39:42.169Z,46.08
2023-10-14T06:42:29.188Z,45.77
2023-10-14T06:45:19.052Z,45.96
2023-10-14T06:48:06.521Z,46.12
2023-10-14T06:50:56.113Z,46.18
2023-10-14T06:53:41.873Z,46.17
2023-10-14T06:56:28.481Z,46.11
2023-10-14T06:59:16.097Z,46.00
2023-10-14T07:02:02.029Z,46.11
2023-10-14T07:04:47.898Z,45.86
2023-10-14T07:07:34.187Z,46.28
2023-10-14T07:10:29.897Z,46.36
2023-10-14T07:13:17.340Z,46.16
2023-10-14T07:16:08.241Z,46.36
2023-10-14T07:18:54.423Z,46.18
2023-10-14T07:21:40.645Z,46.28
2023-10-14T07:24:26.808Z,46.11
2023-10-14T07:27:14.673Z,46.49
2023-10-14T07:30:00.910Z,46.59
2023-10-14T07:32:49.317Z,46.68
2023-10-14T07:35:35.602Z,46.60
2023-10-14T07:38:21.759Z,46.55
2023-10-14T07:41:11.415Z,46.64
2023-10-14T07:43:57.295Z,46.78
2023-10-14T07:46:43.541Z,46.30
2023-10-14T07:49:30.217Z,46.35
2023-10-14T07:52:16.675Z,46.48
2023-10-14T07:55:03.639Z,46.43
2023-10-14T07:57:50.600Z,46.46
2023-10-14T08:00:40.944Z,46.18
2023-10-14T08:03:30.884Z,46.27
2023-10-14T08:06:19.261Z,46.11
2023-10-14T08:09:05.572Z,46.00
2023-10-14T08:11:52.284Z,46.01
2023-10-14T08:14:38.315Z,46.12
2023-10-14T08:17:25.441Z,45.97
2023-10-14T08:20:14.853Z,45.95
2023-10-14T08:23:01.672Z,45.98
2023-10-14T08:25:48.472Z,45.95
2023-10-14T08:28:34.656Z,45.86
2023-10-14T08:31:21.786Z,45.78
2023-10-14T08:34:08.658Z,45.56
2023-10-14T08:36:57.896Z,45.53
2023-10-14T08:39:46.096Z,45.47
2023-10-14T08:42:33.098Z,45.39
2023-10-14T08:45:21.405Z,45.25
2023-10-14T08:48:16.368Z,45.29
2023-10-14T08:51:02.397Z,45.33
2023-10-14T08:53:54.627Z,45.05
2023-10-14T08:56:43.942Z,45.28
2023-10-14T08:59:31.086Z,44.95
2023-10-14T09:02:17.248Z,44.71
2023-10-14T09:05:04.788Z,44.99
2023-10-14T09:07:53.782Z,44.66
2023-10-14T09:10:40.711Z,44.58
2023-10-14T09:13:27.104Z,44.29
2023-10-14T09:16:26.286Z,43.73
2023-10-14T09:19:13.338Z,44.19
2023-10-14T09:21:59.297Z,44.00
2023-10-14T09:24:46.916Z,43.94
2023-10-14T09:27:33.083Z,43.60
2023-10-14T09:30:30.752Z,43.57
2023-10-14T09:33:32.937Z,43.13
2023-10-14T09:36:21.925Z,43.25
2023-10-14T09:39:14.705Z,43.10
2023-10-14T09:42:03.802Z,42.91
2023-10-14T09:44:53.324Z,42.92
2023-10-14T09:47:47.213Z,42.70
2023-10-14T09:50:35.221Z,42.62
2023-10-14T09:53:21.334Z,42.55
2023-10-14T09:56:12.387Z,42.33
2023-10-14T09:58:59.156Z,42.26
2023-10-14T10:01:46.112Z,42.06
2023-10-14T10:04:36.204Z,41.64
2023-10-14T10:07:42.621Z,41.68
2023-10-14T10:10:31.578Z,41.59
2023-10-14T10:13:18.651Z,41.24
2023-10-14T10:16:06.016Z,41.19
2023-10-14T10:19:00.090Z,40.00
2023-10-14T10:22:15.131Z,39.25
2023-10-14T10:25:03.891Z,40.52
2023-10-14T10:27:51.577Z,40.46
2023-10-14T10:30:48.341Z,39.77
2023-10-14T10:33:46.963Z,38.39
2023-10-14T10:36:33.997Z,40.05
2023-10-14T10:39:21.317Z,39.93
2023-10-14T10:42:09.761Z,39.67
2023-10-14T10:44:57.819Z,39.72
2023-10-14T10:47:53.214Z,39.43
2023-10-14T10:50:41.424Z,39.19
2023-10-14T10:53:28.936Z,39.27
2023-10-14T10:56:15.010Z,38.88
2023-10-14T10:59:05.748Z,38.53
2023-10-14T11:01:56.066Z,38.53
2023-10-14T11:04:43.100Z,38.42
2023-10-14T11:07:29.041Z,37.99
2023-10-14T11:10:15.240Z,38.17
2023-10-14T11:13:02.199Z,37.94
2023-10-14T11:15:51.629Z,37.54
2023-10-14T11:18:39.697Z,37.26
2023-10-14T11:21:29.090Z,37.54
2023-10-14T11:24:15.035Z,37.38
2023-10-14T11:27:03.477Z,36.77
2023-10-14T11:29:50.765Z,36.52
2023-10-14T11:32:36.586Z,36.46
2023-10-14T11:35:23.337Z,36.25
2023-10-14T11:38:14.124Z,35.85
2023-10-14T11:41:00.746Z,35.34
2023-10-14T11:43:47.138Z,34.46
2023-10-14T11:46:40.017Z,32.53
2023-10-14T11:49:26.732Z,31.34
2023-10-14T11:52:13.219Z,28.90
2023-10-14T11:55:00.300Z,26.90
2023-10-14T11:57:48.201Z,24.54
2023-10-14T12:00:34.255Z,22.55
2023-10-14T12:03:20.238Z,20.95
2023-10-14T12:06:13.340Z,19.34
2023-10-14T12:08:59.530Z,19.86
2023-10-14T12:12:19.600Z,17.53
2023-10-14T12:15:07.367Z,16.24
2023-10-14T12:17:54.045Z,15.64
2023-10-14T12:20:55.556Z,14.74
2023-10-14T12:23:42.142Z,14.47
2023-10-14T12:26:58.259Z,13.80
2023-10-14T12:29:44.135Z,13.50
2023-10-14T12:32:34.021Z,13.40
2023-10-14T12:35:29.239Z,13.62
2023-10-14T12:38:20.999Z,13.70
2023-10-14T12:41:08.125Z,13.83
2023-10-14T12:44:34.708Z,14.05
2023-10-14T12:47:26.403Z,13.91
2023-10-14T12:50:35.044Z,14.00
2023-10-14T12:54:41.602Z,14.36
2023-10-14T12:57:28.081Z,15.34
2023-10-14T13:00:19.823Z,15.26
2023-10-14T13:03:15.274Z,16.21
2023-10-14T13:06:01.601Z,16.44
2023-10-14T13:08:49.239Z,16.17
2023-10-14T13:11:35.997Z,15.94
2023-10-14T13:14:29.261Z,15.93
2023-10-14T13:17:16.036Z,15.62
2023-10-14T13:20:10.188Z,15.90
2023-10-14T13:23:00.888Z,16.01
2023-10-14T13:25:48.456Z,15.97
2023-10-14T13:28:34.993Z,15.89
2023-10-14T13:31:22.021Z,16.16
2023-10-14T13:34:09.847Z,16.55
2023-10-14T13:36:59.082Z,16.66
2023-10-14T13:39:46.702Z,16.95
2023-10-14T13:42:32.889Z,17.14
2023-10-14T13:45:20.117Z,17.71
2023-10-14T13:48:07.599Z,18.11
2023-10-14T13:50:56.164Z,18.71
2023-10-14T13:53:46.176Z,19.55
2023-10-14T13:56:32.493Z,19.94
2023-10-14T13:59:23.810Z,20.25
2023-10-14T14:02:10.048Z,20.63
2023-10-14T14:04:56.275Z,21.26
2023-10-14T14:07:42.430Z,21.04
2023-10-14T14:10:30.685Z,21.36
2023-10-14T14:13:19.384Z,22.01
2023-10-14T14:16:06.890Z,22.21
2023-10-14T14:18:53.440Z,22.47
2023-10-14T14:21:44.915Z,22.38
2023-10-14T14:24:34.585Z,22.96
2023-10-14T14:27:20.680Z,23.41
2023-10-14T14:30:10.678Z,23.31
2023-10-14T14:32:57.134Z,23.42
2023-10-14T14:35:49.022Z,23.59
2023-10-14T14:38:35.971Z,24.01
2023-10-14T14:41:28.486Z,24.36
2023-10-14T14:44:15.105Z,24.80
2023-10-14T14:47:04.410Z,24.94
2023-10-14T14:49:52.147Z,25.00
2023-10-14T14:52:39.097Z,24.85
2023-10-14T14:55:26.682Z,25.24
2023-10-14T14:58:16.069Z,25.42
2023-10-14T15:01:20.879Z,25.57
2023-10-14T15:04:08.376Z,25.94
2023-10-14T15:06:56.805Z,25.98
2023-10-14T15:09:44.866Z,25.90
2023-10-14T15:12:33.831Z,26.01
2023-10-14T15:15:20.080Z,25.91
2023-10-14T15:18:09.333Z,26.26
2023-10-14T15:20:56.303Z,26.48
2023-10-14T15:23:44.281Z,26.42
2023-10-14T15:26:30.705Z,26.76
2023-10-14T15:29:17.392Z,26.94
2023-10-14T15:32:06.720Z,27.02
2023-10-14T15:34:52.928Z,27.11
2023-10-14T15:37:39.299Z,27.32
2023-10-14T15:40:26.208Z,27.51
2023-10-14T15:43:12.613Z,27.50
2023-10-14T15:46:02.873Z,27.70
2023-10-14T15:48:52.907Z,27.76
2023-10-14T15:51:39.616Z,27.37
2023-10-14T15:54:29.430Z,27.42
2023-10-14T15:57:16.043Z,27.46
2023-10-14T16:00:01.948Z,27.56
2023-10-14T16:02:55.274Z,27.64
2023-10-14T16:05:45.720Z,27.65
2023-10-14T16:08:33.122Z,27.71
2023-10-14T16:11:20.816Z,27.88
2023-10-14T16:14:07.291Z,28.14
2023-10-14T16:16:55.170Z,28.16
2023-10-14T16:19:41.054Z,28.18
2023-10-14T16:22:28.062Z,28.36
2023-10-14T16:25:14.977Z,28.25
2023-10-14T16:28:03.946Z,28.35
2023-10-14T16:30:49.889Z,28.19
2023-10-14T16:33:35.779Z,28.36
2023-10-14T16:36:21.883Z,28.45
2023-10-14T16:39:10.585Z,28.50
2023-10-14T16:41:57.066Z,28.62
2023-10-14T16:44:42.945Z,28.59
2023-10-14T16:47:28.858Z,28.67
2023-10-14T16:50:16.547Z,28.76
2023-10-14T16:53:02.937Z,28.92
2023-10-14T16:55:49.321Z,28.87
2023-10-14T16:58:35.930Z,29.05
2023-10-14T17:01:22.177Z,29.12
2023-10-14T17:04:08.925Z,29.21
2023-10-14T17:06:55.168Z,29.13
2023-10-14T17:09:41.270Z,29.38
2023-10-14T17:12:27.098Z,29.34
2023-10-14T17:15:20.704Z,29.79
2023-10-14T17:18:08.062Z,30.16
2023-10-14T17:21:08.077Z,30.52
2023-10-14T17:23:55.281Z,31.35
2023-10-14T17:26:47.166Z,30.99
2023-10-14T17:29:33.458Z,30.90
2023-10-14T17:32:21.648Z,31.10
2023-10-14T17:35:14.890Z,31.21
2023-10-14T17:38:02.562Z,31.47
2023-10-14T17:40:51.728Z,31.27
2023-10-14T17:43:37.672Z,31.47
2023-10-14T17:46:26.702Z,31.68
2023-10-14T17:49:12.944Z,31.25
2023-10-14T17:52:00.263Z,31.61
2023-10-14T17:54:46.916Z,31.73
2023-10-14T17:57:33.757Z,31.83
2023-10-14T18:00:26.998Z,31.74
2023-10-14T18:03:13.444Z,31.79
2023-10-14T18:05:59.704Z,31.85
2023-10-14T18:08:46.715Z,32.04
2023-10-14T18:11:32.682Z,32.13
2023-10-14T18:14:18.597Z,32.15
2023-10-14T18:17:06.274Z,32.44
2023-10-14T18:19:52.378Z,32.49
2023-10-14T18:22:40.429Z,32.70
2023-10-14T18:25:31.535Z,32.89
2023-10-14T18:28:17.539Z,32.86
2023-10-14T18:31:03.818Z,32.88
2023-10-14T18:33:51.507Z,32.90
2023-10-14T18:36:40.645Z,33.02
2023-10-14T18:39:27.933Z,33.07
2023-10-14T18:42:14.586Z,33.23
2023-10-14T18:45:03.777Z,33.88
2023-10-14T18:47:54.327Z,34.58
2023-10-14T18:50:43.546Z,34.04
2023-10-14T18:53:29.621Z,34.15
2023-10-14T18:56:22.790Z,34.39
2023-10-14T18:59:09.159Z,34.25
2023-10-14T19:01:55.820Z,34.28
2023-10-14T19:04:42.186Z,34.35
2023-10-14T19:07:29.571Z,34.48
2023-10-14T19:10:25.795Z,34.65
2023-10-14T19:13:12.627Z,34.58
2023-10-14T19:15:59.314Z,34.79
2023-10-14T19:18:45.091Z,34.80
2023-10-14T19:22:05.763Z,34.83
2023-10-14T19:24:51.739Z,34.78
2023-10-14T19:28:41.938Z,34.86
2023-10-14T19:45:04.046Z,34.94
2023-10-14T19:47:50.921Z,35.22
2023-10-14T19:50:37.232Z,35.36
2023-10-14T19:53:27.594Z,35.34
2023-10-14T19:56:14.017Z,35.61
2023-10-14T19:59:00.179Z,35.61
2023-10-14T20:01:46.510Z,35.75
2023-10-14T20:04:32.991Z,35.71
2023-10-14T20:07:20.237Z,35.80
2023-10-14T20:10:08.072Z,35.99
2023-10-14T20:12:55.450Z,36.06
2023-10-14T20:15:42.270Z,36.12
2023-10-14T20:18:29.994Z,36.22
2023-10-14T20:21:18.181Z,36.20
2023-10-14T20:24:07.216Z,36.36
2023-10-14T20:26:53.502Z,36.49
2023-10-14T20:29:40.765Z,36.49
2023-10-14T20:32:26.807Z,36.58
2023-10-14T20:35:18.204Z,36.65
2023-10-14T20:38:04.568Z,36.66
2023-10-14T20:40:50.978Z,36.85
2023-10-14T20:43:41.572Z,36.79
2023-10-14T20:46:29.204Z,36.93
2023-10-14T20:49:18.296Z,37.04
2023-10-14T20:52:05.819Z,36.97
2023-10-14T20:54:52.060Z,37.14
2023-10-14T20:57:38.050Z,37.12
2023-10-14T21:00:27.475Z,37.43
2023-10-14T21:03:22.239Z,37.36
2023-10-14T21:06:08.554Z,37.49
2023-10-14T21:08:55.155Z,37.57
2023-10-14T21:11:41.277Z,37.63
2023-10-14T21:14:27.286Z,37.65
2023-10-14T21:17:13.063Z,37.55
2023-10-14T21:19:59.274Z,37.82
2023-10-14T21:22:46.316Z,37.71
2023-10-14T21:25:34.379Z,37.92
2023-10-14T21:28:21.306Z,37.95
2023-10-14T21:31:12.492Z,38.04
2023-10-14T21:33:59.200Z,37.99
2023-10-14T21:36:45.377Z,38.23
2023-10-14T21:39:31.930Z,38.20
2023-10-14T21:42:18.611Z,38.43
2023-10-14T21:45:06.932Z,38.56
2023-10-14T21:47:56.093Z,38.51
2023-10-14T21:50:44.383Z,38.54
2023-10-14T21:53:30.891Z,38.51
2023-10-14T21:56:17.043Z,38.69
2023-10-14T21:59:06.432Z,38.68
2023-10-14T22:01:53.739Z,38.53
2023-10-14T22:04:40.219Z,38.64
2023-10-14T22:07:26.098Z,38.85
2023-10-14T22:10:15.596Z,38.90
2023-10-14T22:13:01.775Z,39.03
2023-10-14T22:15:49.266Z,39.04
2023-10-14T22:18:42.416Z,39.32
2023-10-14T22:21:32.049Z,39.36
2023-10-14T22:24:19.106Z,39.22
2023-10-14T22:27:05.730Z,39.42
2023-10-14T22:29:51.665Z,39.51
2023-10-14T22:32:40.346Z,39.58
2023-10-14T22:35:27.008Z,39.52
2023-10-14T22:38:13.269Z,39.54
2023-10-14T22:41:00.743Z,39.65
2023-10-14T22:43:46.856Z,39.60
2023-10-14T22:46:33.275Z,39.78
2023-10-14T22:49:19.744Z,39.72
2023-10-14T22:52:05.929Z,39.91
2023-10-14T22:54:51.660Z,39.94
2023-10-14T22:57:39.352Z,39.86
2023-10-14T23:00:27.745Z,39.82
2023-10-14T23:03:14.462Z,39.69
2023-10-14T23:06:00.574Z,40.52
2023-10-14T23:08:54.607Z,40.42
2023-10-14T23:11:43.168Z,40.87
2023-10-14T23:14:30.215Z,40.78
2023-10-14T23:17:18.165Z,40.77
2023-10-14T23:20:05.159Z,40.87
2023-10-14T23:22:50.997Z,40.69
2023-10-14T23:25:37.015Z,40.93
2023-10-14T23:28:24.541Z,40.85
2023-10-14T23:31:12.237Z,40.45
2023-10-14T23:33:59.993Z,40.79
2023-10-14T23:36:45.810Z,41.13
2023-10-14T23:39:32.612Z,40.79
2023-10-14T23:42:18.326Z,41.15
2023-10-14T23:45:06.845Z,41.06
2023-10-14T23:47:53.760Z,41.00
2023-10-14T23:50:39.855Z,41.05
2023-10-14T23:53:25.597Z,41.12
2023-10-14T23:56:14.496Z,41.35
2023-10-14T23:59:00.430Z,41.02
